sensor_id;sensor_type;location;lat;lon;timestamp;pressure;altitude;pressure_sealevel;temperature;humidity
77019;BME280;66044;53.142;17.962;2023-06-26T00:02:13;101045.04;;;17.93;54.27
77019;BME280;66044;53.142;17.962;2023-06-26T00:04:42;101045.36;;;17.88;54.48
77019;BME280;66044;53.142;17.962;2023-06-26T00:07:09;101045.54;;;17.85;54.60
77019;BME280;66044;53.142;17.962;2023-06-26T00:09:36;101041.52;;;17.81;54.66
77019;BME280;66044;53.142;17.962;2023-06-26T00:12:03;101042.92;;;17.77;54.80
77019;BME280;66044;53.142;17.962;2023-06-26T00:14:29;101043.48;;;17.73;54.85
77019;BME280;66044;53.142;17.962;2023-06-26T00:16:56;101045.84;;;17.70;54.95
77019;BME280;66044;53.142;17.962;2023-06-26T00:19:22;101042.91;;;17.65;54.97
77019;BME280;66044;53.142;17.962;2023-06-26T00:21:49;101042.57;;;17.63;54.98
77019;BME280;66044;53.142;17.962;2023-06-26T00:24:16;101043.71;;;17.59;55.27
77019;BME280;66044;53.142;17.962;2023-06-26T00:26:47;101042.71;;;17.56;55.40
77019;BME280;66044;53.142;17.962;2023-06-26T00:29:14;101044.59;;;17.51;55.50
77019;BME280;66044;53.142;17.962;2023-06-26T00:31:40;101040.71;;;17.48;55.57
77019;BME280;66044;53.142;17.962;2023-06-26T00:34:07;101045.39;;;17.44;55.53
77019;BME280;66044;53.142;17.962;2023-06-26T00:36:33;101043.86;;;17.40;55.76
77019;BME280;66044;53.142;17.962;2023-06-26T00:39:00;101042.33;;;17.37;55.82
77019;BME280;66044;53.142;17.962;2023-06-26T00:41:26;101041.56;;;17.33;55.80
77019;BME280;66044;53.142;17.962;2023-06-26T00:43:52;101038.63;;;17.29;55.95
77019;BME280;66044;53.142;17.962;2023-06-26T00:46:19;101038.71;;;17.25;56.18
77019;BME280;66044;53.142;17.962;2023-06-26T00:48:46;101038.48;;;17.21;56.40
77019;BME280;66044;53.142;17.962;2023-06-26T00:51:15;101038.71;;;17.17;56.35
77019;BME280;66044;53.142;17.962;2023-06-26T00:53:42;101036.09;;;17.13;56.33
77019;BME280;66044;53.142;17.962;2023-06-26T00:56:09;101035.62;;;17.09;56.59
77019;BME280;66044;53.142;17.962;2023-06-26T00:58:35;101033.77;;;17.04;56.65
77019;BME280;66044;53.142;17.962;2023-06-26T01:01:02;101038.79;;;16.99;56.79
77019;BME280;66044;53.142;17.962;2023-06-26T01:03:29;101035.21;;;16.95;57.00
77019;BME280;66044;53.142;17.962;2023-06-26T01:05:57;101030.80;;;16.91;57.15
77019;BME280;66044;53.142;17.962;2023-06-26T01:08:25;101035.07;;;16.87;57.35
77019;BME280;66044;53.142;17.962;2023-06-26T01:10:53;101033.94;;;16.84;57.31
77019;BME280;66044;53.142;17.962;2023-06-26T01:13:20;101032.56;;;16.81;57.28
77019;BME280;66044;53.142;17.962;2023-06-26T01:15:47;101030.11;;;16.79;57.50
77019;BME280;66044;53.142;17.962;2023-06-26T01:18:15;101027.36;;;16.78;57.56
77019;BME280;66044;53.142;17.962;2023-06-26T01:20:43;101024.41;;;16.76;57.55
77019;BME280;66044;53.142;17.962;2023-06-26T01:23:24;101023.35;;;16.74;57.70
77019;BME280;66044;53.142;17.962;2023-06-26T01:28:40;101020.86;;;16.70;58.02
77019;BME280;66044;53.142;17.962;2023-06-26T01:31:07;101016.25;;;16.68;57.75
77019;BME280;66044;53.142;17.962;2023-06-26T01:33:35;101017.08;;;16.66;58.05
77019;BME280;66044;53.142;17.962;2023-06-26T01:36:03;101010.62;;;16.65;57.96
77019;BME280;66044;53.142;17.962;2023-06-26T01:38:29;101006.38;;;16.63;58.04
77019;BME280;66044;53.142;17.962;2023-06-26T01:40:56;101005.95;;;16.60;58.11
77019;BME280;66044;53.142;17.962;2023-06-26T01:43:31;101004.45;;;16.56;58.23
77019;BME280;66044;53.142;17.962;2023-06-26T01:46:10;101001.75;;;16.53;58.04
77019;BME280;66044;53.142;17.962;2023-06-26T01:48:55;100998.29;;;16.50;58.15
77019;BME280;66044;53.142;17.962;2023-06-26T01:51:28;100994.50;;;16.47;58.30
77019;BME280;66044;53.142;17.962;2023-06-26T01:53:57;100995.31;;;16.45;58.48
77019;BME280;66044;53.142;17.962;2023-06-26T01:56:26;100996.07;;;16.41;58.42
77019;BME280;66044;53.142;17.962;2023-06-26T01:58:55;100991.56;;;16.36;58.86
77019;BME280;66044;53.142;17.962;2023-06-26T02:01:21;100990.63;;;16.32;58.84
77019;BME280;66044;53.142;17.962;2023-06-26T02:03:48;100989.86;;;16.29;58.74
77019;BME280;66044;53.142;17.962;2023-06-26T02:06:15;100993.77;;;16.27;58.87
77019;BME280;66044;53.142;17.962;2023-06-26T02:08:41;100989.67;;;16.23;59.08
77019;BME280;66044;53.142;17.962;2023-06-26T02:11:08;100992.36;;;16.22;59.35
77019;BME280;66044;53.142;17.962;2023-06-26T02:13:34;100992.55;;;16.20;59.33
77019;BME280;66044;53.142;17.962;2023-06-26T02:16:00;100993.98;;;16.18;59.33
77019;BME280;66044;53.142;17.962;2023-06-26T02:18:27;100986.91;;;16.14;59.51
77019;BME280;66044;53.142;17.962;2023-06-26T02:20:53;100992.30;;;16.16;59.62
77019;BME280;66044;53.142;17.962;2023-06-26T02:23:20;100989.25;;;16.14;59.58
77019;BME280;66044;53.142;17.962;2023-06-26T02:25:46;100992.02;;;16.13;59.78
77019;BME280;66044;53.142;17.962;2023-06-26T02:28:13;100990.05;;;16.12;59.65
77019;BME280;66044;53.142;17.962;2023-06-26T02:30:39;100990.77;;;16.10;59.82
77019;BME280;66044;53.142;17.962;2023-06-26T02:33:05;100992.53;;;16.08;60.00
77019;BME280;66044;53.142;17.962;2023-06-26T02:35:32;100996.57;;;16.05;60.13
77019;BME280;66044;53.142;17.962;2023-06-26T02:37:59;100998.77;;;16.04;60.03
77019;BME280;66044;53.142;17.962;2023-06-26T02:40:25;100998.45;;;16.03;60.06
77019;BME280;66044;53.142;17.962;2023-06-26T02:42:52;100994.80;;;16.03;60.21
77019;BME280;66044;53.142;17.962;2023-06-26T02:45:18;100997.50;;;16.02;60.40
77019;BME280;66044;53.142;17.962;2023-06-26T02:47:45;100996.25;;;16.01;60.45
77019;BME280;66044;53.142;17.962;2023-06-26T02:50:11;100997.02;;;16.02;60.32
77019;BME280;66044;53.142;17.962;2023-06-26T02:52:37;100998.30;;;16.03;60.44
77019;BME280;66044;53.142;17.962;2023-06-26T02:55:05;101000.70;;;16.06;60.12
77019;BME280;66044;53.142;17.962;2023-06-26T02:57:31;100999.73;;;16.09;60.35
77019;BME280;66044;53.142;17.962;2023-06-26T02:59:58;100999.15;;;16.11;60.21
77019;BME280;66044;53.142;17.962;2023-06-26T03:02:24;100998.27;;;16.12;60.29
77019;BME280;66044;53.142;17.962;2023-06-26T03:04:51;100998.20;;;16.16;60.30
77019;BME280;66044;53.142;17.962;2023-06-26T03:07:18;100995.79;;;16.19;59.89
77019;BME280;66044;53.142;17.962;2023-06-26T03:09:44;100999.03;;;16.23;59.99
77019;BME280;66044;53.142;17.962;2023-06-26T03:12:10;100998.17;;;16.26;60.02
77019;BME280;66044;53.142;17.962;2023-06-26T03:14:37;100997.34;;;16.31;59.97
77019;BME280;66044;53.142;17.962;2023-06-26T03:17:04;100994.27;;;16.36;60.04
77019;BME280;66044;53.142;17.962;2023-06-26T03:19:32;100993.20;;;16.41;59.93
77019;BME280;66044;53.142;17.962;2023-06-26T03:21:58;100987.72;;;16.45;59.82
77019;BME280;66044;53.142;17.962;2023-06-26T03:24:25;100986.75;;;16.50;59.74
77019;BME280;66044;53.142;17.962;2023-06-26T03:26:51;100983.69;;;16.56;59.63
77019;BME280;66044;53.142;17.962;2023-06-26T03:29:18;100986.44;;;16.65;59.77
77019;BME280;66044;53.142;17.962;2023-06-26T03:31:44;100983.69;;;16.76;59.54
77019;BME280;66044;53.142;17.962;2023-06-26T03:34:11;100986.54;;;16.87;59.44
77019;BME280;66044;53.142;17.962;2023-06-26T03:36:37;100984.21;;;17.00;59.30
77019;BME280;66044;53.142;17.962;2023-06-26T03:39:03;100984.62;;;17.15;58.93
77019;BME280;66044;53.142;17.962;2023-06-26T03:41:30;100988.20;;;17.28;58.80
77019;BME280;66044;53.142;17.962;2023-06-26T03:43:56;100987.44;;;17.44;58.67
77019;BME280;66044;53.142;17.962;2023-06-26T03:46:23;100991.33;;;17.75;58.20
77019;BME280;66044;53.142;17.962;2023-06-26T03:48:49;100995.52;;;19.10;56.71
77019;BME280;66044;53.142;17.962;2023-06-26T03:51:16;101000.00;;;20.86;54.34
77019;BME280;66044;53.142;17.962;2023-06-26T03:53:42;100998.58;;;22.53;51.77
77019;BME280;66044;53.142;17.962;2023-06-26T03:56:09;101003.66;;;24.06;49.15
77019;BME280;66044;53.142;17.962;2023-06-26T03:58:35;101004.54;;;25.44;46.55
77019;BME280;66044;53.142;17.962;2023-06-26T04:01:01;101010.49;;;26.71;44.00
77019;BME280;66044;53.142;17.962;2023-06-26T04:03:28;101011.83;;;27.88;41.59
77019;BME280;66044;53.142;17.962;2023-06-26T04:05:55;101015.05;;;28.98;39.58
77019;BME280;66044;53.142;17.962;2023-06-26T04:08:24;101011.77;;;29.98;37.59
77019;BME280;66044;53.142;17.962;2023-06-26T04:10:52;101013.52;;;30.89;35.97
77019;BME280;66044;53.142;17.962;2023-06-26T04:13:20;101015.83;;;31.77;34.69
77019;BME280;66044;53.142;17.962;2023-06-26T04:15:46;101015.65;;;32.62;33.01
77019;BME280;66044;53.142;17.962;2023-06-26T04:18:13;101022.79;;;33.44;31.82
77019;BME280;66044;53.142;17.962;2023-06-26T04:20:41;101022.91;;;34.26;30.79
77019;BME280;66044;53.142;17.962;2023-06-26T04:23:08;101020.18;;;35.06;29.60
77019;BME280;66044;53.142;17.962;2023-06-26T04:25:34;101020.59;;;35.78;28.27
77019;BME280;66044;53.142;17.962;2023-06-26T04:28:00;101023.05;;;36.48;27.75
77019;BME280;66044;53.142;17.962;2023-06-26T04:30:27;101025.86;;;37.16;26.83
77019;BME280;66044;53.142;17.962;2023-06-26T04:32:53;101030.43;;;37.84;25.89
77019;BME280;66044;53.142;17.962;2023-06-26T04:35:20;101030.82;;;38.52;25.10
77019;BME280;66044;53.142;17.962;2023-06-26T04:37:47;101031.48;;;39.19;24.30
77019;BME280;66044;53.142;17.962;2023-06-26T04:40:13;101030.45;;;39.80;23.54
77019;BME280;66044;53.142;17.962;2023-06-26T04:42:40;101031.44;;;40.35;22.97
77019;BME280;66044;53.142;17.962;2023-06-26T04:45:07;101031.11;;;40.94;22.35
77019;BME280;66044;53.142;17.962;2023-06-26T04:47:34;101033.69;;;41.50;21.48
77019;BME280;66044;53.142;17.962;2023-06-26T04:50:00;101031.64;;;42.08;20.96
77019;BME280;66044;53.142;17.962;2023-06-26T04:52:26;101034.09;;;42.65;20.47
77019;BME280;66044;53.142;17.962;2023-06-26T04:54:53;101032.23;;;43.13;19.85
77019;BME280;66044;53.142;17.962;2023-06-26T04:57:19;101034.66;;;43.62;19.46
77019;BME280;66044;53.142;17.962;2023-06-26T04:59:46;101040.39;;;44.14;19.02
77019;BME280;66044;53.142;17.962;2023-06-26T05:02:12;101039.93;;;44.62;18.54
77019;BME280;66044;53.142;17.962;2023-06-26T05:04:41;101039.89;;;45.04;17.99
77019;BME280;66044;53.142;17.962;2023-06-26T05:07:08;101040.48;;;45.42;17.83
77019;BME280;66044;53.142;17.962;2023-06-26T05:09:35;101038.80;;;45.85;17.19
77019;BME280;66044;53.142;17.962;2023-06-26T05:12:02;101035.35;;;46.17;16.80
77019;BME280;66044;53.142;17.962;2023-06-26T05:14:29;101036.19;;;46.46;16.32
77019;BME280;66044;53.142;17.962;2023-06-26T05:16:55;101038.87;;;46.67;16.05
77019;BME280;66044;53.142;17.962;2023-06-26T05:19:21;101033.43;;;46.90;15.79
77019;BME280;66044;53.142;17.962;2023-06-26T05:21:49;101030.09;;;47.30;15.89
77019;BME280;66044;53.142;17.962;2023-06-26T05:24:17;101034.00;;;47.69;15.44
77019;BME280;66044;53.142;17.962;2023-06-26T05:26:45;101034.20;;;48.14;15.30
77019;BME280;66044;53.142;17.962;2023-06-26T05:29:12;101031.02;;;48.69;14.66
77019;BME280;66044;53.142;17.962;2023-06-26T05:31:41;101029.50;;;49.18;14.56
77019;BME280;66044;53.142;17.962;2023-06-26T05:34:10;101026.45;;;49.70;14.07
77019;BME280;66044;53.142;17.962;2023-06-26T05:36:37;101021.48;;;50.13;13.56
77019;BME280;66044;53.142;17.962;2023-06-26T05:39:05;101020.21;;;50.37;13.39
77019;BME280;66044;53.142;17.962;2023-06-26T05:41:32;101022.35;;;50.70;13.11
77019;BME280;66044;53.142;17.962;2023-06-26T05:43:59;101020.72;;;50.93;12.93
77019;BME280;66044;53.142;17.962;2023-06-26T05:46:25;101016.46;;;51.29;12.73
77019;BME280;66044;53.142;17.962;2023-06-26T05:48:51;101017.89;;;51.80;12.56
77019;BME280;66044;53.142;17.962;2023-06-26T05:51:18;101017.95;;;52.25;12.10
77019;BME280;66044;53.142;17.962;2023-06-26T05:53:45;101015.55;;;52.32;12.39
77019;BME280;66044;53.142;17.962;2023-06-26T05:56:12;101014.48;;;52.54;12.16
77019;BME280;66044;53.142;17.962;2023-06-26T05:58:39;101016.66;;;52.95;11.52
77019;BME280;66044;53.142;17.962;2023-06-26T06:01:05;101016.91;;;53.53;11.53
77019;BME280;66044;53.142;17.962;2023-06-26T06:03:32;101009.29;;;54.11;11.09
77019;BME280;66044;53.142;17.962;2023-06-26T06:05:58;101008.58;;;54.62;10.71
77019;BME280;66044;53.142;17.962;2023-06-26T06:08:25;101008.31;;;54.67;10.71
77019;BME280;66044;53.142;17.962;2023-06-26T06:10:51;101008.69;;;54.76;10.49
77019;BME280;66044;53.142;17.962;2023-06-26T06:13:18;101009.31;;;55.04;10.31
77019;BME280;66044;53.142;17.962;2023-06-26T06:15:44;101009.97;;;55.58;10.15
77019;BME280;66044;53.142;17.962;2023-06-26T06:18:10;101010.36;;;56.03;9.54
77019;BME280;66044;53.142;17.962;2023-06-26T06:20:37;101005.27;;;56.33;9.30
77019;BME280;66044;53.142;17.962;2023-06-26T06:23:04;101003.81;;;56.13;9.27
77019;BME280;66044;53.142;17.962;2023-06-26T06:25:32;101001.00;;;55.90;9.35
77019;BME280;66044;53.142;17.962;2023-06-26T06:27:58;100995.44;;;55.83;9.22
77019;BME280;66044;53.142;17.962;2023-06-26T06:30:25;100990.34;;;55.60;9.27
77019;BME280;66044;53.142;17.962;2023-06-26T06:32:51;100988.92;;;55.80;9.60
77019;BME280;66044;53.142;17.962;2023-06-26T06:35:19;100986.59;;;56.53;9.36
77019;BME280;66044;53.142;17.962;2023-06-26T06:37:46;100992.45;;;57.17;9.29
77019;BME280;66044;53.142;17.962;2023-06-26T06:40:12;100992.63;;;57.77;8.91
77019;BME280;66044;53.142;17.962;2023-06-26T06:42:39;100998.06;;;58.42;8.50
77019;BME280;66044;53.142;17.962;2023-06-26T06:45:05;100995.90;;;58.92;8.34
77019;BME280;66044;53.142;17.962;2023-06-26T06:47:33;100990.95;;;58.81;7.83
77019;BME280;66044;53.142;17.962;2023-06-26T06:50:02;100991.27;;;58.60;7.81
77019;BME280;66044;53.142;17.962;2023-06-26T06:52:38;100987.55;;;58.72;8.04
77019;BME280;66044;53.142;17.962;2023-06-26T06:55:07;100988.67;;;59.07;8.22
77019;BME280;66044;53.142;17.962;2023-06-26T06:57:35;100987.66;;;59.54;7.80
77019;BME280;66044;53.142;17.962;2023-06-26T07:00:06;100987.02;;;60.04;7.83
77019;BME280;66044;53.142;17.962;2023-06-26T07:02:38;100985.79;;;60.46;7.14
77019;BME280;66044;53.142;17.962;2023-06-26T07:05:05;100984.39;;;60.09;7.47
77019;BME280;66044;53.142;17.962;2023-06-26T07:07:33;100984.58;;;59.88;7.69
77019;BME280;66044;53.142;17.962;2023-06-26T07:10:02;100980.40;;;60.15;7.60
77019;BME280;66044;53.142;17.962;2023-06-26T07:12:29;100979.70;;;60.42;7.29
77019;BME280;66044;53.142;17.962;2023-06-26T07:14:57;100977.88;;;60.57;7.20
77019;BME280;66044;53.142;17.962;2023-06-26T07:17:23;100974.17;;;60.68;7.55
77019;BME280;66044;53.142;17.962;2023-06-26T07:19:50;100971.16;;;60.83;7.49
77019;BME280;66044;53.142;17.962;2023-06-26T07:22:16;100972.93;;;60.89;7.44
77019;BME280;66044;53.142;17.962;2023-06-26T07:24:45;100974.07;;;60.98;7.25
77019;BME280;66044;53.142;17.962;2023-06-26T07:27:11;100972.34;;;60.98;7.21
77019;BME280;66044;53.142;17.962;2023-06-26T07:29:38;100971.58;;;60.92;7.14
77019;BME280;66044;53.142;17.962;2023-06-26T07:32:04;100964.70;;;60.45;7.17
77019;BME280;66044;53.142;17.962;2023-06-26T07:34:31;100958.70;;;59.47;7.71
77019;BME280;66044;53.142;17.962;2023-06-26T07:36:57;100955.84;;;58.41;8.06
77019;BME280;66044;53.142;17.962;2023-06-26T07:39:24;100944.67;;;56.86;8.47
77019;BME280;66044;53.142;17.962;2023-06-26T07:41:50;100937.98;;;54.68;9.23
77019;BME280;66044;53.142;17.962;2023-06-26T07:44:17;100928.02;;;52.35;10.50
77019;BME280;66044;53.142;17.962;2023-06-26T07:46:43;100922.27;;;49.87;11.77
77019;BME280;66044;53.142;17.962;2023-06-26T07:49:13;100912.16;;;47.84;12.92
77019;BME280;66044;53.142;17.962;2023-06-26T07:51:40;100906.03;;;46.08;14.00
77019;BME280;66044;53.142;17.962;2023-06-26T07:54:06;100899.92;;;44.69;15.24
77019;BME280;66044;53.142;17.962;2023-06-26T07:56:57;100895.59;;;43.44;15.93
77019;BME280;66044;53.142;17.962;2023-06-26T07:59:25;100896.16;;;42.15;17.04
77019;BME280;66044;53.142;17.962;2023-06-26T08:01:53;100892.59;;;41.00;17.97
77019;BME280;66044;53.142;17.962;2023-06-26T08:04:20;100887.55;;;39.97;18.95
77019;BME280;66044;53.142;17.962;2023-06-26T08:06:53;100884.62;;;39.00;19.64
77019;BME280;66044;53.142;17.962;2023-06-26T08:09:23;100884.33;;;38.19;20.35
77019;BME280;66044;53.142;17.962;2023-06-26T08:11:50;100876.92;;;37.52;20.95
77019;BME280;66044;53.142;17.962;2023-06-26T08:14:17;100876.81;;;36.93;21.75
77019;BME280;66044;53.142;17.962;2023-06-26T08:16:44;100876.24;;;36.47;22.29
77019;BME280;66044;53.142;17.962;2023-06-26T08:19:11;100872.02;;;36.07;22.65
77019;BME280;66044;53.142;17.962;2023-06-26T08:21:39;100868.46;;;35.76;23.13
77019;BME280;66044;53.142;17.962;2023-06-26T08:24:06;100861.48;;;35.47;23.32
77019;BME280;66044;53.142;17.962;2023-06-26T08:26:34;100859.92;;;35.21;23.94
77019;BME280;66044;53.142;17.962;2023-06-26T08:29:00;100856.73;;;35.03;24.42
77019;BME280;66044;53.142;17.962;2023-06-26T08:31:27;100855.52;;;34.92;24.58
77019;BME280;66044;53.142;17.962;2023-06-26T08:33:54;100854.69;;;34.81;24.63
77019;BME280;66044;53.142;17.962;2023-06-26T08:36:20;100850.59;;;34.72;24.78
77019;BME280;66044;53.142;17.962;2023-06-26T08:38:46;100851.77;;;34.65;25.00
77019;BME280;66044;53.142;17.962;2023-06-26T08:41:13;100851.56;;;34.53;25.20
77019;BME280;66044;53.142;17.962;2023-06-26T08:43:40;100849.17;;;34.31;25.43
77019;BME280;66044;53.142;17.962;2023-06-26T08:46:07;100848.44;;;34.13;25.51
77019;BME280;66044;53.142;17.962;2023-06-26T08:48:35;100847.68;;;34.04;25.74
77019;BME280;66044;53.142;17.962;2023-06-26T08:51:09;100850.07;;;33.91;25.94
77019;BME280;66044;53.142;17.962;2023-06-26T08:56:15;100848.55;;;33.68;25.81
77019;BME280;66044;53.142;17.962;2023-06-26T08:58:44;100846.73;;;33.48;25.80
77019;BME280;66044;53.142;17.962;2023-06-26T09:01:12;100845.60;;;33.07;26.12
77019;BME280;66044;53.142;17.962;2023-06-26T09:03:39;100845.67;;;32.69;26.51
77019;BME280;66044;53.142;17.962;2023-06-26T09:06:07;100844.98;;;32.27;27.41
77019;BME280;66044;53.142;17.962;2023-06-26T09:08:34;100841.98;;;31.80;27.78
77019;BME280;66044;53.142;17.962;2023-06-26T09:11:01;100844.45;;;31.48;28.50
77019;BME280;66044;53.142;17.962;2023-06-26T09:13:31;100840.73;;;31.36;28.70
77019;BME280;66044;53.142;17.962;2023-06-26T09:15:57;100837.84;;;31.22;28.90
77019;BME280;66044;53.142;17.962;2023-06-26T09:18:24;100834.27;;;31.07;28.94
77019;BME280;66044;53.142;17.962;2023-06-26T09:20:51;100838.67;;;30.89;28.75
77019;BME280;66044;53.142;17.962;2023-06-26T09:23:18;100830.73;;;30.76;28.94
77019;BME280;66044;53.142;17.962;2023-06-26T09:25:47;100827.64;;;30.92;28.96
77019;BME280;66044;53.142;17.962;2023-06-26T09:28:13;100827.98;;;31.06;28.75
77019;BME280;66044;53.142;17.962;2023-06-26T09:30:41;100828.48;;;31.00;28.61
77019;BME280;66044;53.142;17.962;2023-06-26T09:33:18;100818.70;;;30.93;28.57
77019;BME280;66044;53.142;17.962;2023-06-26T09:35:46;100816.20;;;30.96;28.89
77019;BME280;66044;53.142;17.962;2023-06-26T09:38:14;100817.11;;;31.10;28.71
77019;BME280;66044;53.142;17.962;2023-06-26T09:40:41;100820.13;;;31.21;28.37
77019;BME280;66044;53.142;17.962;2023-06-26T09:43:09;100814.90;;;31.15;27.53
77019;BME280;66044;53.142;17.962;2023-06-26T09:45:39;100812.54;;;31.03;27.38
77019;BME280;66044;53.142;17.962;2023-06-26T09:48:06;100811.92;;;30.96;27.08
77019;BME280;66044;53.142;17.962;2023-06-26T09:50:37;100811.23;;;30.86;27.07
77019;BME280;66044;53.142;17.962;2023-06-26T09:53:08;100812.55;;;30.74;27.04
77019;BME280;66044;53.142;17.962;2023-06-26T09:55:40;100809.13;;;30.72;27.23
77019;BME280;66044;53.142;17.962;2023-06-26T09:58:10;100805.98;;;30.71;26.70
77019;BME280;66044;53.142;17.962;2023-06-26T10:00:42;100801.53;;;30.57;26.53
77019;BME280;66044;53.142;17.962;2023-06-26T10:03:11;100798.77;;;30.43;26.65
77019;BME280;66044;53.142;17.962;2023-06-26T10:05:41;100798.47;;;30.33;26.63
77019;BME280;66044;53.142;17.962;2023-06-26T10:08:08;100796.92;;;30.28;26.78
77019;BME280;66044;53.142;17.962;2023-06-26T10:10:36;100797.48;;;30.24;26.72
77019;BME280;66044;53.142;17.962;2023-06-26T10:13:13;100795.94;;;30.27;26.59
77019;BME280;66044;53.142;17.962;2023-06-26T10:15:44;100794.41;;;30.25;26.69
77019;BME280;66044;53.142;17.962;2023-06-26T10:18:13;100795.73;;;30.20;26.95
77019;BME280;66044;53.142;17.962;2023-06-26T10:20:42;100791.89;;;30.14;26.93
77019;BME280;66044;53.142;17.962;2023-06-26T10:23:11;100791.25;;;30.10;27.78
77019;BME280;66044;53.142;17.962;2023-06-26T10:25:41;100790.60;;;30.16;28.65
77019;BME280;66044;53.142;17.962;2023-06-26T10:28:09;100787.79;;;30.26;28.88
77019;BME280;66044;53.142;17.962;2023-06-26T10:30:39;100782.81;;;30.40;28.79
77019;BME280;66044;53.142;17.962;2023-06-26T10:33:07;100782.26;;;30.53;28.81
77019;BME280;66044;53.142;17.962;2023-06-26T10:35:41;100777.69;;;30.68;28.71
77019;BME280;66044;53.142;17.962;2023-06-26T10:38:08;100772.86;;;30.73;28.53
77019;BME280;66044;53.142;17.962;2023-06-26T10:40:46;100774.17;;;30.67;28.28
77019;BME280;66044;53.142;17.962;2023-06-26T10:43:14;100770.25;;;30.56;28.22
77019;BME280;66044;53.142;17.962;2023-06-26T10:45:49;100765.52;;;30.46;28.09
77019;BME280;66044;53.142;17.962;2023-06-26T10:48:22;100759.13;;;30.32;28.19
77019;BME280;66044;53.142;17.962;2023-06-26T10:50:49;100762.72;;;30.31;28.17
77019;BME280;66044;53.142;17.962;2023-06-26T10:56:04;100760.36;;;30.50;29.08
77019;BME280;66044;53.142;17.962;2023-06-26T10:58:39;100758.95;;;30.63;29.01
77019;BME280;66044;53.142;17.962;2023-06-26T11:01:23;100755.31;;;30.63;28.78
77019;BME280;66044;53.142;17.962;2023-06-26T11:04:00;100756.11;;;30.63;28.73
77019;BME280;66044;53.142;17.962;2023-06-26T11:06:30;100756.94;;;30.62;28.29
77019;BME280;66044;53.142;17.962;2023-06-26T11:09:05;100753.98;;;30.63;28.04
77019;BME280;66044;53.142;17.962;2023-06-26T11:14:22;100751.73;;;30.61;27.98
77019;BME280;66044;53.142;17.962;2023-06-26T11:16:49;100751.95;;;30.64;28.10
77019;BME280;66044;53.142;17.962;2023-06-26T11:19:17;100746.44;;;30.65;28.29
77019;BME280;66044;53.142;17.962;2023-06-26T11:21:45;100746.91;;;30.65;28.33
77019;BME280;66044;53.142;17.962;2023-06-26T11:24:12;100740.49;;;30.65;28.60
77019;BME280;66044;53.142;17.962;2023-06-26T11:26:40;100741.41;;;30.62;28.61
77019;BME280;66044;53.142;17.962;2023-06-26T11:29:09;100736.11;;;30.63;28.40
77019;BME280;66044;53.142;17.962;2023-06-26T11:31:38;100735.75;;;30.67;28.08
77019;BME280;66044;53.142;17.962;2023-06-26T11:34:09;100732.51;;;30.68;28.26
77019;BME280;66044;53.142;17.962;2023-06-26T11:36:40;100739.32;;;30.70;28.38
77019;BME280;66044;53.142;17.962;2023-06-26T11:39:08;100736.95;;;30.70;28.24
77019;BME280;66044;53.142;17.962;2023-06-26T11:41:36;100738.73;;;30.58;28.21
77019;BME280;66044;53.142;17.962;2023-06-26T11:44:08;100739.67;;;30.51;28.18
77019;BME280;66044;53.142;17.962;2023-06-26T11:46:36;100739.64;;;30.40;28.21
77019;BME280;66044;53.142;17.962;2023-06-26T11:49:04;100733.96;;;30.26;28.28
77019;BME280;66044;53.142;17.962;2023-06-26T11:51:31;100733.23;;;30.15;28.48
77019;BME280;66044;53.142;17.962;2023-06-26T11:54:01;100728.18;;;30.01;28.64
77019;BME280;66044;53.142;17.962;2023-06-26T11:56:29;100724.48;;;29.96;28.70
77019;BME280;66044;53.142;17.962;2023-06-26T11:58:57;100721.37;;;29.89;28.77
77019;BME280;66044;53.142;17.962;2023-06-26T12:01:25;100717.76;;;29.76;28.80
77019;BME280;66044;53.142;17.962;2023-06-26T12:03:59;100720.73;;;29.61;28.93
77019;BME280;66044;53.142;17.962;2023-06-26T12:06:28;100716.60;;;29.43;28.65
77019;BME280;66044;53.142;17.962;2023-06-26T12:08:56;100710.39;;;29.26;28.93
77019;BME280;66044;53.142;17.962;2023-06-26T12:11:25;100708.20;;;29.33;28.69
77019;BME280;66044;53.142;17.962;2023-06-26T12:13:52;100702.36;;;29.45;28.65
77019;BME280;66044;53.142;17.962;2023-06-26T12:16:19;100699.54;;;29.59;27.77
77019;BME280;66044;53.142;17.962;2023-06-26T12:18:47;100700.52;;;29.74;27.97
77019;BME280;66044;53.142;17.962;2023-06-26T12:24:15;100695.40;;;30.07;28.33
77019;BME280;66044;53.142;17.962;2023-06-26T12:26:43;100688.77;;;30.14;28.18
77019;BME280;66044;53.142;17.962;2023-06-26T12:29:16;100688.85;;;30.12;28.65
77019;BME280;66044;53.142;17.962;2023-06-26T12:31:45;100692.70;;;30.15;28.84
77019;BME280;66044;53.142;17.962;2023-06-26T12:34:14;100695.11;;;30.23;28.78
77019;BME280;66044;53.142;17.962;2023-06-26T12:36:46;100688.84;;;30.31;28.13
77019;BME280;66044;53.142;17.962;2023-06-26T12:39:20;100683.35;;;30.33;27.98
77019;BME280;66044;53.142;17.962;2023-06-26T12:41:56;100682.34;;;30.35;28.11
77019;BME280;66044;53.142;17.962;2023-06-26T12:44:30;100674.08;;;30.42;27.85
77019;BME280;66044;53.142;17.962;2023-06-26T12:46:58;100671.24;;;30.48;27.12
77019;BME280;66044;53.142;17.962;2023-06-26T12:49:34;100670.88;;;30.53;27.15
77019;BME280;66044;53.142;17.962;2023-06-26T12:52:04;100662.34;;;30.53;26.74
77019;BME280;66044;53.142;17.962;2023-06-26T12:54:32;100665.15;;;30.57;26.49
77019;BME280;66044;53.142;17.962;2023-06-26T12:56:59;100666.27;;;30.62;26.30
77019;BME280;66044;53.142;17.962;2023-06-26T12:59:26;100661.96;;;30.67;25.95